createdAt,value
2023-03-15T05:48:08.870Z,7.78
2023-03-15T05:50:35.277Z,7.78
2023-03-15T05:53:02.085Z,7.75
2023-03-15T05:55:28.484Z,7.72
2023-03-15T05:57:54.907Z,7.68
2023-03-15T06:00:21.831Z,7.61
2023-03-15T06:02:48.290Z,7.50
2023-03-15T06:05:14.803Z,7.53
2023-03-15T06:07:41.633Z,7.48
2023-03-15T06:10:08.240Z,7.45
2023-03-15T06:12:34.620Z,7.42
2023-03-15T06:15:01.030Z,7.39
2023-03-15T06:17:27.463Z,7.35
2023-03-15T06:19:53.846Z,7.34
2023-03-15T06:22:20.659Z,7.32
2023-03-15T06:24:47.240Z,7.29
2023-03-15T06:27:13.671Z,7.29
2023-03-15T06:29:42.652Z,7.26
2023-03-15T06:32:09.250Z,7.23
2023-03-15T06:34:35.637Z,7.24
2023-03-15T06:37:02.016Z,7.20
2023-03-15T06:39:28.387Z,7.21
2023-03-15T06:41:58.499Z,7.21
2023-03-15T06:44:24.950Z,7.21
2023-03-15T06:46:51.379Z,7.22
2023-03-15T06:49:17.792Z,7.21
2023-03-15T06:51:45.444Z,7.23
2023-03-15T06:54:11.869Z,7.24
2023-03-15T06:56:38.536Z,7.24
2023-03-15T06:59:05.252Z,7.23
2023-03-15T07:01:31.726Z,7.25
2023-03-15T07:03:58.171Z,7.26
2023-03-15T07:06:24.525Z,7.26
2023-03-15T07:08:50.911Z,7.26
2023-03-15T07:11:18.731Z,7.27
2023-03-15T07:13:45.128Z,7.27
2023-03-15T07:16:11.670Z,7.29
2023-03-15T07:18:38.099Z,7.31
2023-03-15T07:21:05.176Z,7.31
2023-03-15T07:23:31.758Z,7.32
2023-03-15T07:25:58.249Z,7.35
2023-03-15T07:28:25.293Z,7.35
2023-03-15T07:30:59.144Z,7.38
2023-03-15T07:33:26.239Z,7.40
2023-03-15T07:35:56.133Z,7.41
2023-03-15T07:38:23.780Z,7.44
2023-03-15T07:40:50.240Z,7.45
2023-03-15T07:43:16.601Z,7.49
2023-03-15T07:45:43.061Z,7.54
2023-03-15T07:48:09.531Z,7.59
2023-03-15T07:50:37.142Z,7.64
2023-03-15T07:53:04.108Z,7.65
2023-03-15T07:55:31.566Z,7.70
2023-03-15T07:57:57.934Z,7.74
2023-03-15T08:00:24.362Z,7.77
2023-03-15T08:02:50.771Z,7.79
2023-03-15T08:05:19.082Z,7.82
2023-03-15T08:07:48.998Z,7.87
2023-03-15T08:10:16.395Z,7.89
2023-03-15T08:12:43.176Z,7.92
2023-03-15T08:15:16.265Z,7.92
2023-03-15T08:17:42.813Z,7.92
2023-03-15T08:20:11.713Z,7.96
2023-03-15T08:22:38.600Z,8.00
2023-03-15T08:25:05.234Z,8.03
2023-03-15T08:27:31.640Z,8.06
2023-03-15T08:30:00.351Z,8.09
2023-03-15T08:32:26.884Z,8.12
2023-03-15T08:34:53.332Z,8.15
2023-03-15T08:37:20.068Z,8.21
2023-03-15T08:39:46.458Z,8.28
2023-03-15T08:42:13.556Z,8.35
2023-03-15T08:44:39.969Z,8.42
2023-03-15T08:47:06.442Z,8.48
2023-03-15T08:49:32.884Z,8.55
2023-03-15T08:51:59.274Z,8.60
2023-03-15T08:54:27.480Z,8.65
2023-03-15T08:56:53.931Z,8.72
2023-03-15T08:59:31.365Z,8.78
2023-03-15T09:01:59.679Z,8.85
2023-03-15T09:04:26.151Z,8.93
2023-03-15T09:06:53.830Z,9.03
2023-03-15T09:09:20.187Z,9.15
2023-03-15T09:11:46.564Z,9.24
2023-03-15T09:14:12.925Z,9.33
2023-03-15T09:16:39.314Z,9.41
2023-03-15T09:19:05.698Z,9.50
2023-03-15T09:21:32.041Z,9.61
2023-03-15T09:23:58.467Z,9.71
2023-03-15T09:26:24.892Z,9.84
2023-03-15T09:28:51.355Z,9.97
2023-03-15T09:31:17.767Z,10.11
2023-03-15T09:33:46.657Z,10.24
2023-03-15T09:36:13.036Z,10.40
2023-03-15T09:38:39.458Z,10.54
2023-03-15T09:41:06.395Z,10.72
2023-03-15T09:43:59.171Z,10.83
2023-03-15T09:46:27.947Z,10.98
2023-03-15T09:48:58.384Z,11.12
2023-03-15T09:51:24.711Z,11.23
2023-03-15T09:53:56.559Z,11.37
2023-03-15T09:56:25.485Z,11.50
2023-03-15T09:58:54.119Z,11.63
2023-03-15T10:01:22.700Z,11.73
2023-03-15T10:03:50.549Z,11.79
2023-03-15T10:06:30.424Z,11.84
2023-03-15T10:08:58.248Z,11.87
2023-03-15T10:11:47.927Z,11.87
2023-03-15T10:14:14.278Z,11.87
2023-03-15T10:16:47.942Z,11.85
2023-03-15T10:19:32.665Z,11.83
2023-03-15T10:22:15.939Z,11.81
2023-03-15T10:25:01.181Z,11.78
2023-03-15T10:27:49.358Z,11.75
2023-03-15T10:30:20.509Z,11.73
2023-03-15T10:32:49.679Z,11.74
2023-03-15T10:35:17.526Z,11.72
2023-03-15T10:37:44.203Z,11.72
2023-03-15T10:40:16.013Z,11.70
2023-03-15T10:42:44.592Z,11.68
2023-03-15T10:45:12.509Z,11.68
2023-03-15T10:47:50.461Z,11.73
2023-03-15T10:50:27.858Z,11.77
2023-03-15T10:52:56.618Z,11.80
2023-03-15T10:55:29.749Z,11.78
2023-03-15T10:57:57.372Z,11.77
2023-03-15T11:00:26.890Z,11.74
2023-03-15T11:03:14.368Z,11.73
2023-03-15T11:05:45.309Z,11.79
2023-03-15T11:08:15.994Z,11.89
2023-03-15T11:10:44.349Z,12.01
2023-03-15T11:13:29.967Z,12.16
2023-03-15T11:15:56.372Z,12.28
2023-03-15T11:18:28.099Z,12.34
2023-03-15T11:20:56.326Z,12.37
2023-03-15T11:23:26.263Z,12.33
2023-03-15T11:25:53.438Z,12.22
2023-03-15T11:28:22.389Z,12.09
2023-03-15T11:30:48.963Z,11.97
2023-03-15T11:33:25.959Z,11.83
2023-03-15T11:35:52.940Z,11.73
2023-03-15T11:38:35.573Z,11.67
2023-03-15T11:41:14.929Z,11.65
2023-03-15T11:43:56.689Z,11.73
2023-03-15T11:46:29.427Z,11.85
2023-03-15T11:49:00.808Z,11.97
2023-03-15T11:51:28.518Z,12.05
2023-03-15T11:54:04.507Z,12.12
2023-03-15T11:56:46.261Z,12.18
2023-03-15T11:59:21.286Z,12.28
2023-03-15T12:01:49.750Z,12.42
2023-03-15T12:04:25.316Z,12.52
2023-03-15T12:06:55.267Z,12.62
2023-03-15T12:09:33.843Z,12.74
2023-03-15T12:12:02.099Z,12.88
2023-03-15T12:14:32.547Z,13.02
2023-03-15T12:17:17.809Z,13.15
2023-03-15T12:19:44.236Z,13.30
2023-03-15T12:22:17.612Z,13.45
2023-03-15T12:24:46.079Z,13.61
2023-03-15T12:27:17.520Z,13.76
2023-03-15T12:29:48.409Z,13.90
2023-03-15T12:32:16.200Z,13.98
2023-03-15T12:34:42.638Z,14.04
2023-03-15T12:37:13.546Z,14.13
2023-03-15T12:39:40.030Z,14.22
2023-03-15T12:42:06.918Z,14.28
2023-03-15T12:44:33.241Z,14.37
2023-03-15T12:47:01.219Z,14.44
2023-03-15T12:49:34.485Z,14.53
2023-03-15T12:52:27.345Z,14.56
2023-03-15T12:55:12.228Z,14.61
2023-03-15T12:57:54.003Z,14.61
2023-03-15T13:00:22.007Z,14.62
2023-03-15T13:02:49.891Z,14.62
2023-03-15T13:05:18.673Z,14.64
2023-03-15T13:07:54.108Z,14.65
2023-03-15T13:10:23.240Z,14.68
2023-03-15T13:12:58.757Z,14.68
2023-03-15T13:15:28.462Z,14.69
2023-03-15T13:18:02.135Z,14.70
2023-03-15T13:20:42.277Z,14.67
2023-03-15T13:23:15.066Z,14.56
2023-03-15T13:25:47.454Z,14.41
2023-03-15T13:28:24.608Z,14.25
2023-03-15T13:30:54.624Z,14.08
2023-03-15T13:33:24.570Z,13.93
2023-03-15T13:36:02.097Z,13.81
2023-03-15T13:38:30.941Z,13.68
2023-03-15T13:40:58.756Z,13.60
2023-03-15T13:43:29.988Z,13.53
2023-03-15T13:45:56.812Z,13.46
2023-03-15T13:48:23.559Z,13.42
2023-03-15T13:50:50.538Z,13.35
2023-03-15T13:53:35.665Z,13.33
2023-03-15T13:56:10.070Z,13.29
2023-03-15T13:58:38.369Z,13.26
2023-03-15T14:01:06.344Z,13.26
2023-03-15T14:03:32.905Z,13.28
2023-03-15T14:05:59.704Z,13.26
2023-03-15T14:08:28.503Z,13.29
2023-03-15T14:11:02.263Z,13.30
2023-03-15T14:13:35.865Z,13.33
2023-03-15T14:16:06.679Z,13.36
2023-03-15T14:18:33.124Z,13.40
2023-03-15T14:21:07.341Z,13.42
2023-03-15T14:23:38.954Z,13.44
2023-03-15T14:26:05.409Z,13.44
2023-03-15T14:28:32.578Z,13.43
2023-03-15T14:30:59.584Z,13.46
2023-03-15T14:33:39.723Z,13.46
2023-03-15T14:36:09.949Z,13.46
2023-03-15T14:38:38.011Z,13.47
2023-03-15T17:49:00.219Z,11.78
2023-03-15T17:51:34.266Z,11.70
2023-03-15T17:54:01.265Z,11.64
2023-03-15T17:56:28.474Z,11.57
2023-03-15T17:58:54.969Z,11.50
2023-03-15T18:01:27.435Z,11.43
2023-03-15T18:03:54.469Z,11.38
2023-03-15T18:06:21.798Z,11.31
2023-03-15T18:08:48.552Z,11.23
2023-03-15T18:11:23.631Z,11.16
2023-03-15T18:13:50.092Z,11.08
2023-03-15T18:16:16.549Z,10.99
2023-03-15T18:18:43.064Z,10.92
2023-03-15T18:21:27.743Z,10.83
2023-03-15T18:23:54.423Z,10.74
2023-03-15T18:26:21.248Z,10.66
2023-03-15T18:28:49.045Z,10.59
2023-03-15T18:31:17.709Z,10.52
2023-03-15T18:33:44.540Z,10.43
2023-03-15T18:36:11.677Z,10.34
2023-03-15T18:38:38.599Z,10.26
2023-03-15T18:41:12.088Z,10.16
2023-03-15T18:43:38.475Z,10.05
2023-03-15T18:46:04.914Z,9.95
2023-03-15T18:48:40.499Z,9.85
2023-03-15T18:51:09.490Z,9.73
2023-03-15T18:53:35.866Z,9.65
2023-03-15T18:56:02.691Z,9.57
2023-03-15T18:58:29.067Z,9.49
2023-03-15T19:00:55.572Z,9.42
2023-03-15T19:03:22.028Z,9.35
2023-03-15T19:05:48.377Z,9.26
2023-03-15T19:08:14.764Z,9.22
2023-03-15T19:10:42.453Z,9.14
2023-03-15T19:13:08.834Z,9.08
2023-03-15T19:15:35.188Z,8.99
2023-03-15T19:18:02.301Z,8.92
2023-03-15T19:20:28.673Z,8.83
2023-03-15T19:22:55.081Z,8.74
2023-03-15T19:25:21.462Z,8.64
2023-03-15T19:27:47.934Z,8.54
2023-03-15T19:30:18.184Z,8.44
2023-03-15T19:32:45.834Z,8.36
2023-03-15T19:35:12.305Z,8.27
2023-03-15T19:37:39.066Z,8.18
2023-03-15T19:40:09.034Z,8.08
2023-03-15T19:42:35.431Z,8.00
2023-03-15T19:45:01.884Z,7.93
2023-03-15T19:47:28.291Z,7.87
2023-03-15T19:49:55.170Z,7.81
2023-03-15T19:52:21.579Z,7.73
2023-03-15T19:54:48.376Z,7.69
2023-03-15T19:57:14.909Z,7.62
2023-03-15T19:59:41.656Z,7.58
2023-03-15T20:02:10.475Z,7.51
2023-03-15T20:04:36.903Z,7.46
2023-03-15T20:07:03.487Z,7.37
2023-03-15T20:09:29.907Z,7.30
2023-03-15T20:11:56.300Z,7.22
2023-03-15T20:14:25.160Z,7.16
2023-03-15T20:16:51.562Z,7.08
2023-03-15T20:19:17.982Z,7.02
2023-03-15T20:21:44.900Z,6.97
2023-03-15T20:24:11.433Z,6.90
2023-03-15T20:26:37.872Z,6.83
2023-03-15T20:29:04.306Z,6.78
2023-03-15T20:31:30.796Z,6.74
2023-03-15T20:33:57.451Z,6.70
2023-03-15T20:36:23.958Z,6.65
2023-03-15T20:38:50.658Z,6.61
2023-03-15T20:41:18.769Z,6.55
2023-03-15T20:43:46.409Z,6.51
2023-03-15T20:46:13.680Z,6.46
2023-03-15T20:48:40.125Z,6.43
2023-03-15T20:51:06.656Z,6.40
2023-03-15T20:53:34.113Z,6.37
2023-03-15T20:56:00.600Z,6.33
2023-03-15T20:58:27.101Z,6.33
2023-03-15T21:01:02.600Z,6.29
2023-03-15T21:03:31.294Z,6.28
2023-03-15T21:05:57.733Z,6.25
2023-03-15T21:08:24.353Z,6.21
2023-03-15T21:10:50.719Z,6.20
2023-03-15T21:13:17.404Z,6.15
2023-03-15T21:15:47.217Z,6.14
2023-03-15T21:18:17.983Z,6.11
2023-03-15T21:20:44.571Z,6.08
2023-03-15T21:23:11.364Z,6.04
2023-03-15T21:25:38.137Z,6.04
2023-03-15T21:28:04.700Z,6.01
2023-03-15T21:30:31.208Z,5.99
2023-03-15T21:32:57.783Z,5.97
2023-03-15T21:35:25.550Z,5.95
2023-03-15T21:37:51.925Z,5.93
2023-03-15T21:40:18.304Z,5.89
2023-03-15T21:42:47.583Z,5.89
2023-03-15T21:45:14.143Z,5.87
2023-03-15T21:47:40.591Z,5.84
2023-03-15T21:50:07.319Z,5.82
2023-03-15T21:52:33.906Z,5.80
2023-03-15T21:55:01.147Z,5.76
2023-03-15T21:57:27.637Z,5.74
2023-03-15T21:59:55.526Z,5.72
2023-03-15T22:02:22.000Z,5.70
2023-03-15T22:04:48.426Z,5.67
2023-03-15T22:07:14.907Z,5.64
2023-03-15T22:09:43.299Z,5.60
2023-03-15T22:12:09.939Z,5.56
2023-03-15T22:14:36.374Z,5.53
2023-03-15T22:17:05.009Z,5.49
2023-03-15T22:19:32.098Z,5.44
2023-03-15T22:21:58.782Z,5.42
2023-03-15T22:24:25.376Z,5.37
2023-03-15T22:26:53.159Z,5.35
2023-03-15T22:29:21.776Z,5.31
2023-03-15T22:31:48.163Z,5.28
2023-03-15T22:34:14.545Z,5.25
2023-03-15T22:36:42.795Z,5.21
2023-03-15T22:39:09.571Z,5.17
2023-03-15T22:41:35.980Z,5.14
2023-03-15T22:44:02.373Z,5.12
2023-03-15T22:46:34.893Z,5.08
2023-03-15T22:49:02.262Z,5.05
2023-03-15T22:51:30.802Z,5.03
2023-03-15T22:53:57.175Z,4.99
2023-03-15T22:56:23.631Z,4.96
2023-03-15T22:58:50.815Z,4.92
2023-03-15T23:01:17.219Z,4.89
2023-03-15T23:03:43.598Z,4.88
2023-03-15T23:06:09.994Z,4.83
2023-03-15T23:08:36.439Z,4.81
2023-03-15T23:11:03.915Z,4.80
2023-03-15T23:13:30.311Z,4.78
2023-03-15T23:15:56.975Z,4.75
2023-03-15T23:18:25.784Z,4.75
2023-03-15T23:20:52.306Z,4.73
2023-03-15T23:23:18.698Z,4.72
2023-03-15T23:25:46.015Z,4.71
2023-03-15T23:28:13.903Z,4.67
2023-03-15T23:30:40.361Z,4.64
2023-03-15T23:33:08.446Z,4.61
2023-03-15T23:35:35.289Z,4.61
2023-03-15T23:38:02.483Z,4.57
2023-03-15T23:40:30.270Z,4.55
2023-03-15T23:42:59.120Z,4.52
2023-03-15T23:45:27.708Z,4.51
2023-03-15T23:47:55.459Z,4.49
2023-03-15T23:50:26.097Z,4.48
2023-03-15T23:52:53.974Z,4.46
2023-03-15T23:55:20.709Z,4.46
2023-03-15T23:57:47.411Z,4.44
